sensor_id;sensor_type;location;lat;lon;timestamp;P1;durP1;ratioP1;P2;durP2;ratioP2
55368;SDS011;41247;49.736;8.752;2023-06-22T00:00:43;7.85;;;6.38;;
55368;SDS011;41247;49.736;8.752;2023-06-22T00:04:24;8.35;;;6.68;;
55368;SDS011;41247;49.736;8.752;2023-06-22T00:08:05;7.20;;;6.47;;
55368;SDS011;41247;49.736;8.752;2023-06-22T00:11:45;9.68;;;6.68;;
55368;SDS011;41247;49.736;8.752;2023-06-22T00:15:26;7.50;;;6.20;;
55368;SDS011;41247;49.736;8.752;2023-06-22T00:19:07;7.65;;;5.88;;
55368;SDS011;41247;49.736;8.752;2023-06-22T00:22:48;8.45;;;6.20;;
55368;SDS011;41247;49.736;8.752;2023-06-22T00:26:29;6.55;;;5.80;;
55368;SDS011;41247;49.736;8.752;2023-06-22T00:30:10;9.15;;;5.88;;
55368;SDS011;41247;49.736;8.752;2023-06-22T00:33:51;7.50;;;6.13;;
55368;SDS011;41247;49.736;8.752;2023-06-22T00:37:31;7.93;;;5.63;;
55368;SDS011;41247;49.736;8.752;2023-06-22T00:41:12;8.80;;;6.32;;
55368;SDS011;41247;49.736;8.752;2023-06-22T00:44:53;6.75;;;5.32;;
55368;SDS011;41247;49.736;8.752;2023-06-22T00:48:33;7.47;;;5.13;;
55368;SDS011;41247;49.736;8.752;2023-06-22T00:52:15;10.38;;;5.88;;
55368;SDS011;41247;49.736;8.752;2023-06-22T00:55:56;8.00;;;5.68;;
55368;SDS011;41247;49.736;8.752;2023-06-22T00:59:36;9.02;;;6.38;;
55368;SDS011;41247;49.736;8.752;2023-06-22T01:03:17;8.85;;;6.30;;
55368;SDS011;41247;49.736;8.752;2023-06-22T01:07:00;12.93;;;6.15;;
55368;SDS011;41247;49.736;8.752;2023-06-22T01:11:11;12.20;;;6.45;;
55368;SDS011;41247;49.736;8.752;2023-06-22T01:15:02;10.50;;;7.47;;
55368;SDS011;41247;49.736;8.752;2023-06-22T01:18:49;23.58;;;8.88;;
55368;SDS011;41247;49.736;8.752;2023-06-22T01:22:33;12.38;;;8.70;;
55368;SDS011;41247;49.736;8.752;2023-06-22T01:27:05;11.43;;;8.20;;
55368;SDS011;41247;49.736;8.752;2023-06-22T01:31:03;12.52;;;9.77;;
55368;SDS011;41247;49.736;8.752;2023-06-22T01:34:46;16.30;;;10.13;;
55368;SDS011;41247;49.736;8.752;2023-06-22T01:38:28;16.05;;;10.40;;
55368;SDS011;41247;49.736;8.752;2023-06-22T01:42:10;14.30;;;10.25;;
55368;SDS011;41247;49.736;8.752;2023-06-22T01:45:51;13.75;;;10.10;;
55368;SDS011;41247;49.736;8.752;2023-06-22T01:49:36;15.35;;;10.40;;
55368;SDS011;41247;49.736;8.752;2023-06-22T01:53:17;13.93;;;9.20;;
55368;SDS011;41247;49.736;8.752;2023-06-22T01:56:58;12.10;;;9.15;;
55368;SDS011;41247;49.736;8.752;2023-06-22T02:00:39;11.60;;;9.45;;
55368;SDS011;41247;49.736;8.752;2023-06-22T02:04:32;12.93;;;10.13;;
55368;SDS011;41247;49.736;8.752;2023-06-22T02:08:28;11.45;;;9.43;;
55368;SDS011;41247;49.736;8.752;2023-06-22T02:12:18;14.27;;;10.02;;
55368;SDS011;41247;49.736;8.752;2023-06-22T02:16:04;11.90;;;9.15;;
55368;SDS011;41247;49.736;8.752;2023-06-22T02:19:45;11.18;;;8.80;;
55368;SDS011;41247;49.736;8.752;2023-06-22T02:23:26;12.60;;;9.13;;
55368;SDS011;41247;49.736;8.752;2023-06-22T02:27:06;11.70;;;9.50;;
55368;SDS011;41247;49.736;8.752;2023-06-22T02:30:47;9.60;;;8.60;;
55368;SDS011;41247;49.736;8.752;2023-06-22T02:34:28;9.32;;;8.13;;
55368;SDS011;41247;49.736;8.752;2023-06-22T02:38:08;11.52;;;8.80;;
55368;SDS011;41247;49.736;8.752;2023-06-22T02:41:49;9.75;;;8.45;;
55368;SDS011;41247;49.736;8.752;2023-06-22T02:45:34;10.23;;;8.35;;
55368;SDS011;41247;49.736;8.752;2023-06-22T02:53:00;9.95;;;7.97;;
55368;SDS011;41247;49.736;8.752;2023-06-22T02:56:40;10.95;;;8.63;;
55368;SDS011;41247;49.736;8.752;2023-06-22T03:00:21;9.45;;;8.18;;
55368;SDS011;41247;49.736;8.752;2023-06-22T03:04:02;9.25;;;8.13;;
55368;SDS011;41247;49.736;8.752;2023-06-22T03:07:43;14.52;;;9.13;;
55368;SDS011;41247;49.736;8.752;2023-06-22T03:11:24;14.48;;;9.73;;
55368;SDS011;41247;49.736;8.752;2023-06-22T03:15:09;16.13;;;10.75;;
55368;SDS011;41247;49.736;8.752;2023-06-22T03:22:36;14.18;;;9.90;;
55368;SDS011;41247;49.736;8.752;2023-06-22T03:26:21;10.43;;;9.15;;
55368;SDS011;41247;49.736;8.752;2023-06-22T03:30:02;9.57;;;8.60;;
55368;SDS011;41247;49.736;8.752;2023-06-22T03:33:43;9.52;;;8.50;;
55368;SDS011;41247;49.736;8.752;2023-06-22T03:37:24;10.73;;;8.55;;
55368;SDS011;41247;49.736;8.752;2023-06-22T03:41:05;13.27;;;10.02;;
55368;SDS011;41247;49.736;8.752;2023-06-22T03:44:46;12.55;;;9.50;;
55368;SDS011;41247;49.736;8.752;2023-06-22T03:48:27;12.85;;;10.05;;
55368;SDS011;41247;49.736;8.752;2023-06-22T03:52:07;11.32;;;9.32;;
55368;SDS011;41247;49.736;8.752;2023-06-22T03:55:49;10.77;;;9.25;;
55368;SDS011;41247;49.736;8.752;2023-06-22T03:59:31;11.10;;;9.32;;
55368;SDS011;41247;49.736;8.752;2023-06-22T04:03:12;11.95;;;9.00;;
55368;SDS011;41247;49.736;8.752;2023-06-22T04:06:53;13.75;;;9.98;;
55368;SDS011;41247;49.736;8.752;2023-06-22T04:10:34;11.68;;;10.38;;
55368;SDS011;41247;49.736;8.752;2023-06-22T04:14:15;18.08;;;11.02;;
55368;SDS011;41247;49.736;8.752;2023-06-22T04:17:55;13.85;;;10.25;;
55368;SDS011;41247;49.736;8.752;2023-06-22T04:21:36;12.70;;;10.25;;
55368;SDS011;41247;49.736;8.752;2023-06-22T04:25:17;12.75;;;10.32;;
55368;SDS011;41247;49.736;8.752;2023-06-22T04:28:57;14.20;;;10.85;;
55368;SDS011;41247;49.736;8.752;2023-06-22T04:32:45;12.65;;;10.88;;
55368;SDS011;41247;49.736;8.752;2023-06-22T04:36:26;13.68;;;10.68;;
55368;SDS011;41247;49.736;8.752;2023-06-22T04:40:08;11.95;;;10.25;;
55368;SDS011;41247;49.736;8.752;2023-06-22T04:43:49;12.32;;;10.23;;
55368;SDS011;41247;49.736;8.752;2023-06-22T04:47:31;13.48;;;11.82;;
55368;SDS011;41247;49.736;8.752;2023-06-22T04:51:12;11.83;;;9.83;;
55368;SDS011;41247;49.736;8.752;2023-06-22T04:54:52;14.30;;;10.90;;
55368;SDS011;41247;49.736;8.752;2023-06-22T04:58:33;16.13;;;12.15;;
55368;SDS011;41247;49.736;8.752;2023-06-22T05:02:14;13.82;;;10.80;;
55368;SDS011;41247;49.736;8.752;2023-06-22T05:05:54;15.00;;;12.18;;
55368;SDS011;41247;49.736;8.752;2023-06-22T05:09:35;17.48;;;12.20;;
55368;SDS011;41247;49.736;8.752;2023-06-22T05:17:00;16.50;;;12.27;;
55368;SDS011;41247;49.736;8.752;2023-06-22T05:20:41;14.90;;;11.35;;
55368;SDS011;41247;49.736;8.752;2023-06-22T05:24:21;16.17;;;12.45;;
55368;SDS011;41247;49.736;8.752;2023-06-22T05:28:02;17.27;;;12.05;;
55368;SDS011;41247;49.736;8.752;2023-06-22T05:31:43;17.65;;;11.60;;
55368;SDS011;41247;49.736;8.752;2023-06-22T05:35:24;13.52;;;11.60;;
55368;SDS011;41247;49.736;8.752;2023-06-22T05:39:12;12.13;;;10.75;;
55368;SDS011;41247;49.736;8.752;2023-06-22T05:42:54;15.65;;;10.98;;
55368;SDS011;41247;49.736;8.752;2023-06-22T05:46:35;15.00;;;11.57;;
55368;SDS011;41247;49.736;8.752;2023-06-22T05:50:16;15.13;;;11.18;;
55368;SDS011;41247;49.736;8.752;2023-06-22T05:53:57;18.63;;;11.00;;
55368;SDS011;41247;49.736;8.752;2023-06-22T05:57:38;12.65;;;10.60;;
55368;SDS011;41247;49.736;8.752;2023-06-22T06:01:18;18.77;;;11.75;;
55368;SDS011;41247;49.736;8.752;2023-06-22T06:05:02;13.48;;;10.63;;
55368;SDS011;41247;49.736;8.752;2023-06-22T06:08:43;13.07;;;10.90;;
55368;SDS011;41247;49.736;8.752;2023-06-22T06:12:23;16.00;;;10.90;;
55368;SDS011;41247;49.736;8.752;2023-06-22T06:16:05;15.88;;;10.48;;
55368;SDS011;41247;49.736;8.752;2023-06-22T06:19:46;15.60;;;10.90;;
55368;SDS011;41247;49.736;8.752;2023-06-22T06:23:26;13.43;;;10.00;;
55368;SDS011;41247;49.736;8.752;2023-06-22T06:27:07;14.52;;;10.23;;
55368;SDS011;41247;49.736;8.752;2023-06-22T06:30:47;14.27;;;10.23;;
55368;SDS011;41247;49.736;8.752;2023-06-22T06:34:28;12.75;;;10.40;;
55368;SDS011;41247;49.736;8.752;2023-06-22T06:38:08;16.02;;;10.32;;
55368;SDS011;41247;49.736;8.752;2023-06-22T06:41:49;12.95;;;10.00;;
55368;SDS011;41247;49.736;8.752;2023-06-22T06:45:30;14.70;;;10.52;;
55368;SDS011;41247;49.736;8.752;2023-06-22T06:49:10;13.93;;;9.85;;
55368;SDS011;41247;49.736;8.752;2023-06-22T06:52:51;13.38;;;9.82;;
55368;SDS011;41247;49.736;8.752;2023-06-22T06:56:31;17.00;;;10.48;;
55368;SDS011;41247;49.736;8.752;2023-06-22T07:00:12;10.88;;;9.32;;
55368;SDS011;41247;49.736;8.752;2023-06-22T07:03:54;15.32;;;10.20;;
55368;SDS011;41247;49.736;8.752;2023-06-22T07:07:34;12.25;;;9.60;;
55368;SDS011;41247;49.736;8.752;2023-06-22T07:11:16;13.85;;;9.75;;
55368;SDS011;41247;49.736;8.752;2023-06-22T07:15:01;12.82;;;9.98;;
55368;SDS011;41247;49.736;8.752;2023-06-22T07:18:49;11.80;;;9.75;;
55368;SDS011;41247;49.736;8.752;2023-06-22T07:22:30;12.90;;;9.20;;
55368;SDS011;41247;49.736;8.752;2023-06-22T07:26:10;12.07;;;9.82;;
55368;SDS011;41247;49.736;8.752;2023-06-22T07:29:51;13.60;;;9.45;;
55368;SDS011;41247;49.736;8.752;2023-06-22T07:33:32;11.00;;;9.90;;
55368;SDS011;41247;49.736;8.752;2023-06-22T07:37:12;14.23;;;10.23;;
55368;SDS011;41247;49.736;8.752;2023-06-22T07:40:53;12.48;;;10.73;;
55368;SDS011;41247;49.736;8.752;2023-06-22T07:44:33;11.50;;;9.63;;
55368;SDS011;41247;49.736;8.752;2023-06-22T07:48:14;15.63;;;10.30;;
55368;SDS011;41247;49.736;8.752;2023-06-22T07:51:54;12.15;;;10.00;;
55368;SDS011;41247;49.736;8.752;2023-06-22T07:55:35;13.60;;;9.73;;
55368;SDS011;41247;49.736;8.752;2023-06-22T07:59:16;14.05;;;10.35;;
55368;SDS011;41247;49.736;8.752;2023-06-22T08:02:56;12.35;;;10.00;;
55368;SDS011;41247;49.736;8.752;2023-06-22T08:06:37;10.90;;;9.25;;
55368;SDS011;41247;49.736;8.752;2023-06-22T08:10:18;13.77;;;10.93;;
55368;SDS011;41247;49.736;8.752;2023-06-22T08:13:59;11.93;;;10.35;;
55368;SDS011;41247;49.736;8.752;2023-06-22T08:17:40;11.85;;;9.88;;
55368;SDS011;41247;49.736;8.752;2023-06-22T08:21:20;12.27;;;9.80;;
55368;SDS011;41247;49.736;8.752;2023-06-22T08:25:01;12.02;;;9.60;;
55368;SDS011;41247;49.736;8.752;2023-06-22T08:28:41;12.10;;;9.90;;
55368;SDS011;41247;49.736;8.752;2023-06-22T08:32:22;12.88;;;9.90;;
55368;SDS011;41247;49.736;8.752;2023-06-22T08:36:03;11.32;;;9.75;;
55368;SDS011;41247;49.736;8.752;2023-06-22T08:39:44;12.70;;;9.43;;
55368;SDS011;41247;49.736;8.752;2023-06-22T08:43:24;10.95;;;8.90;;
55368;SDS011;41247;49.736;8.752;2023-06-22T08:47:05;13.55;;;8.88;;
55368;SDS011;41247;49.736;8.752;2023-06-22T08:50:46;12.88;;;9.27;;
55368;SDS011;41247;49.736;8.752;2023-06-22T08:54:26;9.93;;;8.02;;
55368;SDS011;41247;49.736;8.752;2023-06-22T08:58:07;9.13;;;7.53;;
55368;SDS011;41247;49.736;8.752;2023-06-22T09:01:47;11.82;;;8.10;;
55368;SDS011;41247;49.736;8.752;2023-06-22T09:05:28;13.43;;;7.80;;
55368;SDS011;41247;49.736;8.752;2023-06-22T09:09:09;9.63;;;7.95;;
55368;SDS011;41247;49.736;8.752;2023-06-22T09:12:49;12.02;;;8.20;;
55368;SDS011;41247;49.736;8.752;2023-06-22T09:16:30;12.15;;;8.55;;
55368;SDS011;41247;49.736;8.752;2023-06-22T09:20:11;8.52;;;6.72;;
55368;SDS011;41247;49.736;8.752;2023-06-22T09:23:51;10.27;;;7.90;;
55368;SDS011;41247;49.736;8.752;2023-06-22T09:27:32;8.77;;;6.97;;
55368;SDS011;41247;49.736;8.752;2023-06-22T09:31:13;10.57;;;7.32;;
55368;SDS011;41247;49.736;8.752;2023-06-22T09:34:53;10.27;;;7.68;;
55368;SDS011;41247;49.736;8.752;2023-06-22T09:38:34;7.95;;;6.78;;
55368;SDS011;41247;49.736;8.752;2023-06-22T09:42:16;10.83;;;6.80;;
55368;SDS011;41247;49.736;8.752;2023-06-22T09:45:56;10.05;;;7.30;;
55368;SDS011;41247;49.736;8.752;2023-06-22T09:49:37;9.57;;;7.25;;
55368;SDS011;41247;49.736;8.752;2023-06-22T09:53:18;10.48;;;6.85;;
55368;SDS011;41247;49.736;8.752;2023-06-22T09:56:58;9.75;;;7.32;;
55368;SDS011;41247;49.736;8.752;2023-06-22T10:00:39;10.07;;;7.03;;
55368;SDS011;41247;49.736;8.752;2023-06-22T10:04:19;8.93;;;6.88;;
55368;SDS011;41247;49.736;8.752;2023-06-22T10:08:00;9.98;;;7.05;;
55368;SDS011;41247;49.736;8.752;2023-06-22T10:11:41;10.73;;;7.28;;
55368;SDS011;41247;49.736;8.752;2023-06-22T10:15:21;9.10;;;7.32;;
55368;SDS011;41247;49.736;8.752;2023-06-22T10:19:02;7.30;;;6.60;;
55368;SDS011;41247;49.736;8.752;2023-06-22T10:22:43;9.35;;;6.93;;
55368;SDS011;41247;49.736;8.752;2023-06-22T10:26:24;9.32;;;6.95;;
55368;SDS011;41247;49.736;8.752;2023-06-22T10:30:06;8.60;;;6.95;;
55368;SDS011;41247;49.736;8.752;2023-06-22T10:33:49;10.20;;;6.72;;
55368;SDS011;41247;49.736;8.752;2023-06-22T10:37:29;11.77;;;6.85;;
55368;SDS011;41247;49.736;8.752;2023-06-22T10:41:10;9.90;;;6.85;;
55368;SDS011;41247;49.736;8.752;2023-06-22T10:44:50;10.88;;;6.45;;
55368;SDS011;41247;49.736;8.752;2023-06-22T10:48:31;11.75;;;7.05;;
55368;SDS011;41247;49.736;8.752;2023-06-22T10:52:12;9.68;;;6.20;;
55368;SDS011;41247;49.736;8.752;2023-06-22T10:55:52;12.63;;;6.70;;
55368;SDS011;41247;49.736;8.752;2023-06-22T10:59:33;10.35;;;6.65;;
55368;SDS011;41247;49.736;8.752;2023-06-22T11:03:13;14.73;;;6.75;;
55368;SDS011;41247;49.736;8.752;2023-06-22T11:06:54;10.20;;;6.30;;
55368;SDS011;41247;49.736;8.752;2023-06-22T11:10:35;9.98;;;6.45;;
55368;SDS011;41247;49.736;8.752;2023-06-22T11:14:16;13.15;;;6.60;;
55368;SDS011;41247;49.736;8.752;2023-06-22T11:17:57;11.15;;;6.95;;
55368;SDS011;41247;49.736;8.752;2023-06-22T11:21:37;10.73;;;6.38;;
55368;SDS011;41247;49.736;8.752;2023-06-22T11:25:18;10.18;;;6.53;;
55368;SDS011;41247;49.736;8.752;2023-06-22T11:28:59;9.00;;;6.20;;
55368;SDS011;41247;49.736;8.752;2023-06-22T11:32:39;10.40;;;6.00;;
55368;SDS011;41247;49.736;8.752;2023-06-22T11:36:20;10.77;;;5.93;;
55368;SDS011;41247;49.736;8.752;2023-06-22T11:40:01;11.23;;;6.30;;
55368;SDS011;41247;49.736;8.752;2023-06-22T11:43:41;8.52;;;5.80;;
55368;SDS011;41247;49.736;8.752;2023-06-22T11:47:22;13.20;;;6.18;;
55368;SDS011;41247;49.736;8.752;2023-06-22T11:51:02;10.68;;;6.25;;
55368;SDS011;41247;49.736;8.752;2023-06-22T11:54:43;12.10;;;6.38;;
55368;SDS011;41247;49.736;8.752;2023-06-22T11:58:24;11.63;;;5.85;;
55368;SDS011;41247;49.736;8.752;2023-06-22T12:02:04;10.02;;;5.85;;
55368;SDS011;41247;49.736;8.752;2023-06-22T12:05:45;12.48;;;6.10;;
55368;SDS011;41247;49.736;8.752;2023-06-22T12:09:26;12.35;;;5.95;;
55368;SDS011;41247;49.736;8.752;2023-06-22T12:13:06;7.97;;;5.82;;
55368;SDS011;41247;49.736;8.752;2023-06-22T12:16:47;13.75;;;5.97;;
55368;SDS011;41247;49.736;8.752;2023-06-22T12:20:28;8.65;;;5.40;;
55368;SDS011;41247;49.736;8.752;2023-06-22T12:24:08;10.63;;;5.65;;
55368;SDS011;41247;49.736;8.752;2023-06-22T12:27:49;9.50;;;5.68;;
55368;SDS011;41247;49.736;8.752;2023-06-22T12:31:29;9.80;;;5.63;;
55368;SDS011;41247;49.736;8.752;2023-06-22T12:35:10;9.75;;;5.80;;
55368;SDS011;41247;49.736;8.752;2023-06-22T12:38:51;10.00;;;5.63;;
55368;SDS011;41247;49.736;8.752;2023-06-22T12:42:31;11.20;;;5.20;;
55368;SDS011;41247;49.736;8.752;2023-06-22T12:46:12;13.35;;;5.40;;
55368;SDS011;41247;49.736;8.752;2023-06-22T12:49:52;11.52;;;5.03;;
55368;SDS011;41247;49.736;8.752;2023-06-22T12:53:33;11.82;;;5.13;;
55368;SDS011;41247;49.736;8.752;2023-06-22T12:57:14;12.00;;;4.65;;
55368;SDS011;41247;49.736;8.752;2023-06-22T13:00:55;9.23;;;4.78;;
55368;SDS011;41247;49.736;8.752;2023-06-22T13:04:36;13.03;;;4.53;;
55368;SDS011;41247;49.736;8.752;2023-06-22T13:08:16;16.23;;;5.18;;
55368;SDS011;41247;49.736;8.752;2023-06-22T13:11:57;12.35;;;4.75;;
55368;SDS011;41247;49.736;8.752;2023-06-22T13:15:39;16.45;;;5.32;;
55368;SDS011;41247;49.736;8.752;2023-06-22T13:19:20;14.90;;;4.90;;
55368;SDS011;41247;49.736;8.752;2023-06-22T13:23:01;13.35;;;5.10;;
55368;SDS011;41247;49.736;8.752;2023-06-22T13:26:41;15.88;;;4.43;;
55368;SDS011;41247;49.736;8.752;2023-06-22T13:30:22;11.27;;;5.50;;
55368;SDS011;41247;49.736;8.752;2023-06-22T13:34:02;13.27;;;4.80;;
55368;SDS011;41247;49.736;8.752;2023-06-22T13:37:43;12.57;;;4.82;;
55368;SDS011;41247;49.736;8.752;2023-06-22T13:41:24;11.93;;;5.00;;
55368;SDS011;41247;49.736;8.752;2023-06-22T13:45:04;13.63;;;4.50;;
55368;SDS011;41247;49.736;8.752;2023-06-22T13:48:46;9.48;;;4.57;;
55368;SDS011;41247;49.736;8.752;2023-06-22T13:52:27;10.90;;;4.63;;
55368;SDS011;41247;49.736;8.752;2023-06-22T13:56:07;13.48;;;4.60;;
55368;SDS011;41247;49.736;8.752;2023-06-22T13:59:48;16.55;;;4.93;;
55368;SDS011;41247;49.736;8.752;2023-06-22T14:03:29;13.60;;;4.60;;
55368;SDS011;41247;49.736;8.752;2023-06-22T14:07:09;12.07;;;4.55;;
55368;SDS011;41247;49.736;8.752;2023-06-22T14:10:50;14.32;;;4.50;;
55368;SDS011;41247;49.736;8.752;2023-06-22T14:14:31;12.18;;;4.45;;
55368;SDS011;41247;49.736;8.752;2023-06-22T14:18:12;12.55;;;4.22;;
55368;SDS011;41247;49.736;8.752;2023-06-22T14:21:53;12.48;;;4.43;;
55368;SDS011;41247;49.736;8.752;2023-06-22T14:25:33;13.23;;;4.10;;
55368;SDS011;41247;49.736;8.752;2023-06-22T14:29:14;12.27;;;4.25;;
55368;SDS011;41247;49.736;8.752;2023-06-22T14:32:55;18.88;;;4.45;;
55368;SDS011;41247;49.736;8.752;2023-06-22T14:36:35;12.65;;;4.30;;
55368;SDS011;41247;49.736;8.752;2023-06-22T14:40:16;18.17;;;4.85;;
55368;SDS011;41247;49.736;8.752;2023-06-22T14:43:56;11.70;;;4.72;;
55368;SDS011;41247;49.736;8.752;2023-06-22T14:47:37;11.57;;;4.70;;
55368;SDS011;41247;49.736;8.752;2023-06-22T14:51:18;13.60;;;4.72;;
55368;SDS011;41247;49.736;8.752;2023-06-22T14:54:58;13.60;;;4.88;;
55368;SDS011;41247;49.736;8.752;2023-06-22T14:58:40;15.13;;;4.57;;
55368;SDS011;41247;49.736;8.752;2023-06-22T15:02:21;17.35;;;4.88;;
55368;SDS011;41247;49.736;8.752;2023-06-22T15:06:02;9.40;;;4.57;;
55368;SDS011;41247;49.736;8.752;2023-06-22T15:09:43;16.13;;;4.60;;
55368;SDS011;41247;49.736;8.752;2023-06-22T15:13:25;15.13;;;5.05;;
55368;SDS011;41247;49.736;8.752;2023-06-22T15:17:06;11.50;;;4.38;;
55368;SDS011;41247;49.736;8.752;2023-06-22T15:20:47;14.23;;;4.50;;
55368;SDS011;41247;49.736;8.752;2023-06-22T15:24:28;10.63;;;4.22;;
55368;SDS011;41247;49.736;8.752;2023-06-22T15:28:08;10.73;;;4.35;;
55368;SDS011;41247;49.736;8.752;2023-06-22T15:31:49;15.15;;;4.93;;
55368;SDS011;41247;49.736;8.752;2023-06-22T15:35:31;11.80;;;4.80;;
55368;SDS011;41247;49.736;8.752;2023-06-22T15:39:12;14.95;;;5.28;;
55368;SDS011;41247;49.736;8.752;2023-06-22T15:42:52;9.77;;;4.50;;
55368;SDS011;41247;49.736;8.752;2023-06-22T15:46:33;11.98;;;4.75;;
55368;SDS011;41247;49.736;8.752;2023-06-22T15:50:14;14.38;;;4.72;;
55368;SDS011;41247;49.736;8.752;2023-06-22T15:53:54;16.00;;;5.15;;
55368;SDS011;41247;49.736;8.752;2023-06-22T15:57:35;14.25;;;5.28;;
55368;SDS011;41247;49.736;8.752;2023-06-22T16:01:15;16.02;;;5.40;;
55368;SDS011;41247;49.736;8.752;2023-06-22T16:04:56;15.43;;;5.25;;
55368;SDS011;41247;49.736;8.752;2023-06-22T16:08:37;17.63;;;5.55;;
55368;SDS011;41247;49.736;8.752;2023-06-22T16:12:17;14.05;;;5.97;;
55368;SDS011;41247;49.736;8.752;2023-06-22T16:15:58;16.92;;;5.20;;
55368;SDS011;41247;49.736;8.752;2023-06-22T16:19:39;14.32;;;5.65;;
55368;SDS011;41247;49.736;8.752;2023-06-22T16:23:19;16.38;;;6.13;;
55368;SDS011;41247;49.736;8.752;2023-06-22T16:27:00;18.77;;;6.80;;
55368;SDS011;41247;49.736;8.752;2023-06-22T16:30:40;14.82;;;6.15;;
55368;SDS011;41247;49.736;8.752;2023-06-22T16:34:21;14.02;;;6.05;;
55368;SDS011;41247;49.736;8.752;2023-06-22T16:41:45;18.05;;;6.30;;
55368;SDS011;41247;49.736;8.752;2023-06-22T16:45:26;16.60;;;6.00;;
55368;SDS011;41247;49.736;8.752;2023-06-22T16:49:06;14.10;;;5.80;;
55368;SDS011;41247;49.736;8.752;2023-06-22T16:52:48;13.65;;;5.82;;
55368;SDS011;41247;49.736;8.752;2023-06-22T16:56:28;16.05;;;5.70;;
55368;SDS011;41247;49.736;8.752;2023-06-22T17:00:09;16.10;;;5.82;;
55368;SDS011;41247;49.736;8.752;2023-06-22T17:04:12;16.05;;;5.82;;
55368;SDS011;41247;49.736;8.752;2023-06-22T17:07:57;19.38;;;6.18;;
55368;SDS011;41247;49.736;8.752;2023-06-22T17:11:41;18.42;;;6.10;;
55368;SDS011;41247;49.736;8.752;2023-06-22T17:15:22;15.85;;;6.20;;
55368;SDS011;41247;49.736;8.752;2023-06-22T17:19:04;18.63;;;6.03;;
55368;SDS011;41247;49.736;8.752;2023-06-22T17:22:45;16.38;;;5.95;;
55368;SDS011;41247;49.736;8.752;2023-06-22T17:26:26;15.30;;;5.45;;
55368;SDS011;41247;49.736;8.752;2023-06-22T17:30:07;18.15;;;4.72;;
55368;SDS011;41247;49.736;8.752;2023-06-22T17:33:50;14.20;;;4.03;;
55368;SDS011;41247;49.736;8.752;2023-06-22T17:37:45;21.85;;;4.65;;
55368;SDS011;41247;49.736;8.752;2023-06-22T17:41:37;8.32;;;3.63;;
55368;SDS011;41247;49.736;8.752;2023-06-22T17:45:22;8.77;;;3.88;;
55368;SDS011;41247;49.736;8.752;2023-06-22T17:49:07;10.45;;;3.53;;
55368;SDS011;41247;49.736;8.752;2023-06-22T17:52:52;11.73;;;4.10;;
55368;SDS011;41247;49.736;8.752;2023-06-22T17:56:34;14.80;;;5.32;;
55368;SDS011;41247;49.736;8.752;2023-06-22T18:00:15;13.98;;;5.97;;
55368;SDS011;41247;49.736;8.752;2023-06-22T18:03:56;13.82;;;5.25;;
55368;SDS011;41247;49.736;8.752;2023-06-22T18:11:23;11.80;;;4.57;;
55368;SDS011;41247;49.736;8.752;2023-06-22T18:18:48;14.20;;;3.50;;
55368;SDS011;41247;49.736;8.752;2023-06-22T18:22:29;15.25;;;3.50;;
55368;SDS011;41247;49.736;8.752;2023-06-22T18:26:10;9.25;;;3.30;;
55368;SDS011;41247;49.736;8.752;2023-06-22T18:29:51;14.45;;;3.10;;
55368;SDS011;41247;49.736;8.752;2023-06-22T18:33:35;15.52;;;3.05;;
55368;SDS011;41247;49.736;8.752;2023-06-22T18:37:16;12.65;;;3.95;;
55368;SDS011;41247;49.736;8.752;2023-06-22T18:40:57;13.82;;;3.15;;
55368;SDS011;41247;49.736;8.752;2023-06-22T18:44:39;12.32;;;3.28;;
55368;SDS011;41247;49.736;8.752;2023-06-22T18:48:24;14.30;;;3.28;;
55368;SDS011;41247;49.736;8.752;2023-06-22T18:52:05;11.20;;;3.45;;
55368;SDS011;41247;49.736;8.752;2023-06-22T18:56:10;8.55;;;2.83;;
55368;SDS011;41247;49.736;8.752;2023-06-22T19:03:34;9.95;;;3.70;;
55368;SDS011;41247;49.736;8.752;2023-06-22T19:07:15;13.50;;;2.63;;
55368;SDS011;41247;49.736;8.752;2023-06-22T19:11:10;10.55;;;3.00;;
55368;SDS011;41247;49.736;8.752;2023-06-22T19:15:10;11.13;;;3.30;;
55368;SDS011;41247;49.736;8.752;2023-06-22T19:18:51;6.97;;;2.83;;
55368;SDS011;41247;49.736;8.752;2023-06-22T19:26:37;13.40;;;3.00;;
55368;SDS011;41247;49.736;8.752;2023-06-22T19:30:18;6.43;;;2.92;;
55368;SDS011;41247;49.736;8.752;2023-06-22T19:34:02;7.38;;;2.92;;
55368;SDS011;41247;49.736;8.752;2023-06-22T19:37:47;10.00;;;2.53;;
55368;SDS011;41247;49.736;8.752;2023-06-22T19:41:28;11.65;;;2.72;;
55368;SDS011;41247;49.736;8.752;2023-06-22T19:45:09;5.47;;;2.55;;
55368;SDS011;41247;49.736;8.752;2023-06-22T19:48:55;9.55;;;2.38;;
55368;SDS011;41247;49.736;8.752;2023-06-22T19:52:38;6.93;;;2.40;;
55368;SDS011;41247;49.736;8.752;2023-06-22T20:00:02;3.63;;;1.85;;
55368;SDS011;41247;49.736;8.752;2023-06-22T20:03:44;13.07;;;2.55;;
55368;SDS011;41247;49.736;8.752;2023-06-22T20:07:33;8.02;;;1.92;;
55368;SDS011;41247;49.736;8.752;2023-06-22T20:11:23;3.17;;;1.85;;
55368;SDS011;41247;49.736;8.752;2023-06-22T20:15:13;7.38;;;1.90;;
55368;SDS011;41247;49.736;8.752;2023-06-22T20:19:12;4.13;;;1.60;;
55368;SDS011;41247;49.736;8.752;2023-06-22T20:22:56;3.97;;;1.40;;
55368;SDS011;41247;49.736;8.752;2023-06-22T20:26:38;3.50;;;1.05;;
55368;SDS011;41247;49.736;8.752;2023-06-22T20:30:23;4.10;;;1.00;;
55368;SDS011;41247;49.736;8.752;2023-06-22T20:34:03;6.18;;;1.23;;
55368;SDS011;41247;49.736;8.752;2023-06-22T20:37:44;3.70;;;0.88;;
55368;SDS011;41247;49.736;8.752;2023-06-22T20:41:25;5.75;;;1.05;;
55368;SDS011;41247;49.736;8.752;2023-06-22T20:45:06;5.38;;;0.73;;
55368;SDS011;41247;49.736;8.752;2023-06-22T20:48:47;8.32;;;1.13;;
55368;SDS011;41247;49.736;8.752;2023-06-22T20:52:28;1.63;;;0.98;;
55368;SDS011;41247;49.736;8.752;2023-06-22T20:56:09;9.02;;;1.20;;
55368;SDS011;41247;49.736;8.752;2023-06-22T20:59:49;3.67;;;1.05;;
55368;SDS011;41247;49.736;8.752;2023-06-22T21:03:30;1.35;;;0.90;;
55368;SDS011;41247;49.736;8.752;2023-06-22T21:07:12;5.55;;;0.90;;
55368;SDS011;41247;49.736;8.752;2023-06-22T21:10:53;2.27;;;0.73;;
55368;SDS011;41247;49.736;8.752;2023-06-22T21:14:33;2.25;;;0.70;;
55368;SDS011;41247;49.736;8.752;2023-06-22T21:18:14;3.40;;;0.68;;
55368;SDS011;41247;49.736;8.752;2023-06-22T21:21:55;4.28;;;0.88;;
55368;SDS011;41247;49.736;8.752;2023-06-22T21:25:35;0.82;;;0.43;;
55368;SDS011;41247;49.736;8.752;2023-06-22T21:29:16;2.50;;;0.70;;
55368;SDS011;41247;49.736;8.752;2023-06-22T21:32:56;3.85;;;0.55;;
55368;SDS011;41247;49.736;8.752;2023-06-22T21:36:37;1.40;;;0.60;;
55368;SDS011;41247;49.736;8.752;2023-06-22T21:40:18;1.73;;;0.70;;
55368;SDS011;41247;49.736;8.752;2023-06-22T21:43:58;2.22;;;0.88;;
55368;SDS011;41247;49.736;8.752;2023-06-22T21:47:39;2.28;;;0.70;;
55368;SDS011;41247;49.736;8.752;2023-06-22T21:51:19;3.70;;;0.80;;
55368;SDS011;41247;49.736;8.752;2023-06-22T21:55:00;4.03;;;0.70;;
55368;SDS011;41247;49.736;8.752;2023-06-22T21:58:41;2.75;;;0.70;;
55368;SDS011;41247;49.736;8.752;2023-06-22T22:02:22;0.90;;;0.50;;
55368;SDS011;41247;49.736;8.752;2023-06-22T22:06:02;1.02;;;0.77;;
55368;SDS011;41247;49.736;8.752;2023-06-22T22:09:43;1.70;;;0.60;;
55368;SDS011;41247;49.736;8.752;2023-06-22T22:13:25;2.00;;;0.50;;
55368;SDS011;41247;49.736;8.752;2023-06-22T22:17:08;3.08;;;0.70;;
55368;SDS011;41247;49.736;8.752;2023-06-22T22:20:49;1.80;;;0.55;;
55368;SDS011;41247;49.736;8.752;2023-06-22T22:24:29;0.55;;;0.52;;
55368;SDS011;41247;49.736;8.752;2023-06-22T22:28:10;2.85;;;0.70;;
55368;SDS011;41247;49.736;8.752;2023-06-22T22:31:51;1.95;;;0.65;;